createdAt,value
2019-01-09T00:01:30.357Z,99.90
2019-01-09T00:04:00.288Z,93.50
2019-01-09T00:06:30.168Z,92.70
2019-01-09T00:09:00.037Z,96.60
2019-01-09T00:11:31.963Z,96.20
2019-01-09T00:14:02.424Z,95.80
2019-01-09T00:16:32.700Z,98.20
2019-01-09T00:19:02.761Z,94.50
2019-01-09T00:21:32.738Z,91.70
2019-01-09T00:24:02.913Z,89.30
2019-01-09T00:26:32.973Z,89.50
2019-01-09T00:29:04.953Z,88.30
2019-01-09T00:31:35.160Z,78.70
2019-01-09T00:34:05.215Z,83.60
2019-01-09T00:36:35.284Z,85.30
2019-01-09T00:39:07.755Z,88.70
2019-01-09T00:41:37.976Z,90.40
2019-01-09T00:44:08.321Z,86.70
2019-01-09T00:46:38.636Z,83.20
2019-01-09T00:49:09.454Z,94.90
2019-01-09T00:51:39.385Z,89.00
2019-01-09T00:54:09.324Z,96.40
2019-01-09T00:56:39.484Z,94.70
2019-01-09T00:59:09.477Z,88.40
2019-01-09T01:01:39.956Z,90.40
2019-01-09T01:04:42.217Z,87.70
2019-01-09T01:07:58.021Z,92.60
2019-01-09T01:11:14.859Z,75.30
2019-01-09T01:14:24.877Z,92.80
2019-01-09T01:17:37.592Z,91.60
2019-01-09T01:20:37.572Z,84.60
2019-01-09T01:24:08.261Z,88.00
2019-01-09T01:27:30.796Z,91.70
2019-01-09T01:30:36.305Z,89.30
2019-01-09T01:33:17.344Z,82.90
2019-01-09T01:36:28.665Z,91.60
2019-01-09T01:39:31.390Z,91.60
2019-01-09T01:42:31.564Z,83.40
2019-01-09T01:45:48.068Z,81.50
2019-01-09T01:49:14.152Z,74.50
2019-01-09T01:52:25.800Z,79.00
2019-01-09T01:55:16.267Z,83.70
2019-01-09T01:58:11.854Z,90.70
2019-01-09T02:01:25.145Z,88.10
2019-01-09T02:04:37.009Z,94.50
2019-01-09T02:07:33.841Z,92.50
2019-01-09T02:13:21.528Z,89.00
2019-01-09T02:16:16.784Z,90.00
2019-01-09T02:19:12.312Z,85.40
2019-01-09T02:22:35.672Z,90.00
2019-01-09T02:25:35.192Z,90.00
2019-01-09T02:28:32.459Z,86.40
2019-01-09T02:31:21.108Z,86.60
2019-01-09T02:33:51.049Z,95.90
2019-01-09T02:36:21.132Z,96.10
2019-01-09T02:38:50.980Z,94.00
2019-01-09T02:41:21.074Z,95.70
2019-01-09T02:43:51.129Z,99.50
2019-01-09T02:46:21.200Z,92.80
2019-01-09T02:48:51.261Z,97.10
2019-01-09T02:51:21.436Z,85.00
2019-01-09T02:56:21.580Z,94.60
2019-01-09T02:58:51.297Z,86.70
2019-01-09T03:01:21.189Z,90.80
2019-01-09T03:03:51.154Z,93.10
2019-01-09T03:06:23.195Z,78.00
2019-01-09T03:08:52.396Z,93.30
2019-01-09T03:11:22.393Z,96.00
2019-01-09T03:13:52.250Z,91.80
2019-01-09T03:16:22.472Z,86.80
2019-01-09T03:18:52.437Z,86.40
2019-01-09T03:21:22.540Z,91.20
2019-01-09T03:23:52.580Z,90.10
2019-01-09T03:26:22.441Z,85.90
2019-01-09T03:28:52.409Z,84.70
2019-01-09T03:31:22.465Z,80.50
2019-01-09T03:33:52.425Z,81.00
2019-01-09T03:36:22.392Z,80.70
2019-01-09T03:38:52.258Z,88.30
2019-01-09T03:41:22.108Z,90.20
2019-01-09T03:43:52.093Z,86.00
2019-01-09T03:46:22.058Z,73.00
2019-01-09T03:48:52.114Z,89.10
2019-01-09T03:51:22.073Z,77.60
2019-01-09T03:53:52.056Z,82.80
2019-01-09T03:56:21.900Z,83.10
2019-01-09T03:58:51.891Z,83.30
2019-01-09T04:01:21.946Z,85.00
2019-01-09T04:03:52.052Z,90.30
2019-01-09T04:06:22.065Z,88.70
2019-01-09T04:08:53.049Z,83.00
2019-01-09T04:11:23.208Z,83.80
2019-01-09T04:13:53.110Z,88.90
2019-01-09T04:16:22.973Z,82.00
2019-01-09T04:18:53.065Z,92.80
2019-01-09T04:21:22.850Z,75.20
2019-01-09T04:23:52.701Z,86.70
2019-01-09T04:26:22.368Z,90.70
2019-01-09T04:28:52.436Z,86.10
2019-01-09T04:31:22.494Z,91.80
2019-01-09T04:33:52.370Z,91.50
2019-01-09T04:36:23.907Z,78.30
2019-01-09T04:38:53.820Z,96.60
2019-01-09T04:41:23.694Z,92.50
2019-01-09T04:43:53.751Z,89.60
2019-01-09T04:46:23.537Z,87.90
2019-01-09T04:48:54.097Z,88.70
2019-01-09T04:51:23.974Z,75.80
2019-01-09T04:53:54.210Z,89.40
2019-01-09T04:56:24.299Z,89.00
2019-01-09T04:58:54.161Z,85.50
2019-01-09T05:01:26.092Z,81.80
2019-01-09T05:03:56.026Z,85.30
2019-01-09T05:06:25.921Z,85.10
2019-01-09T05:08:56.367Z,85.70
2019-01-09T05:11:26.152Z,82.30
2019-01-09T05:13:56.218Z,73.60
2019-01-09T05:16:26.192Z,84.90
2019-01-09T05:18:56.040Z,80.20
2019-01-09T05:21:25.916Z,83.80
2019-01-09T05:23:56.196Z,85.70
2019-01-09T05:26:26.151Z,76.60
2019-01-09T05:28:56.180Z,70.90
2019-01-09T05:31:26.009Z,92.90
2019-01-09T05:33:56.100Z,89.40
2019-01-09T05:36:26.160Z,80.80
2019-01-09T05:38:55.929Z,90.00
2019-01-09T05:41:25.877Z,85.30
2019-01-09T05:43:55.749Z,74.80
2019-01-09T05:46:25.480Z,82.00
2019-01-09T05:48:55.397Z,89.40
2019-01-09T05:51:27.631Z,79.60
2019-01-09T05:53:59.197Z,75.80
2019-01-09T05:56:29.062Z,92.90
2019-01-09T05:58:59.644Z,89.30
2019-01-09T06:01:29.908Z,82.10
2019-01-09T06:03:59.884Z,81.40
2019-01-09T06:06:29.831Z,78.90
2019-01-09T06:08:59.727Z,71.90
2019-01-09T06:11:29.559Z,78.10
2019-01-09T06:13:59.332Z,81.10
2019-01-09T06:16:29.592Z,80.20
2019-01-09T06:18:59.560Z,74.50
2019-01-09T06:21:30.458Z,85.10
2019-01-09T06:24:00.597Z,87.50
2019-01-09T06:26:30.469Z,84.30
2019-01-09T06:29:00.460Z,84.50
2019-01-09T06:31:30.296Z,81.60
2019-01-09T06:34:00.183Z,79.50
2019-01-09T06:36:30.095Z,76.80
2019-01-09T06:39:00.544Z,73.00
2019-01-09T06:41:30.312Z,74.70
2019-01-09T06:44:00.185Z,83.80
2019-01-09T06:46:30.158Z,87.20
2019-01-09T06:48:59.996Z,81.00
2019-01-09T06:51:29.990Z,83.00
2019-01-09T06:54:00.040Z,83.20
2019-01-09T06:56:30.124Z,81.90
2019-01-09T06:59:00.290Z,74.10
2019-01-09T07:01:30.560Z,81.90
2019-01-09T07:04:01.024Z,79.10
2019-01-09T07:06:30.815Z,78.60
2019-01-09T07:09:00.648Z,78.30
2019-01-09T07:11:30.416Z,75.50
2019-01-09T07:14:00.413Z,75.00
2019-01-09T07:16:30.263Z,71.70
2019-01-09T07:19:00.112Z,75.30
2019-01-09T07:21:30.184Z,74.50
2019-01-09T07:24:00.132Z,73.30
2019-01-09T07:26:29.919Z,66.60
2019-01-09T07:28:59.879Z,74.10
2019-01-09T07:31:29.851Z,75.10
2019-01-09T07:34:00.001Z,73.50
2019-01-09T07:36:30.164Z,73.00
2019-01-09T07:39:00.258Z,74.30
2019-01-09T07:41:30.221Z,72.80
2019-01-09T07:44:00.177Z,73.40
2019-01-09T07:46:30.042Z,72.60
2019-01-09T07:48:59.893Z,77.20
2019-01-09T07:51:29.872Z,74.50
2019-01-09T07:53:59.897Z,72.30
2019-01-09T07:56:29.741Z,74.20
2019-01-09T07:58:59.717Z,73.60
2019-01-09T08:01:29.557Z,73.50
2019-01-09T08:03:59.544Z,75.60
2019-01-09T08:06:29.384Z,75.30
2019-01-09T08:08:59.268Z,67.80
2019-01-09T08:11:29.115Z,78.90
2019-01-09T08:13:59.118Z,75.00
2019-01-09T08:16:29.162Z,80.80
2019-01-09T08:18:59.025Z,85.90
2019-01-09T08:21:28.985Z,86.00
2019-01-09T08:23:58.867Z,81.20
2019-01-09T08:26:30.488Z,84.30
2019-01-09T08:29:00.424Z,82.90
2019-01-09T08:31:30.159Z,80.10
2019-01-09T08:33:59.932Z,78.00
2019-01-09T08:36:29.788Z,78.50
2019-01-09T08:39:00.379Z,71.20
2019-01-09T08:41:30.540Z,81.70
2019-01-09T08:44:00.424Z,81.80
2019-01-09T08:46:30.392Z,72.50
2019-01-09T08:49:00.255Z,78.40
2019-01-09T08:51:30.242Z,81.40
2019-01-09T08:54:00.072Z,84.20
2019-01-09T08:56:29.924Z,85.20
2019-01-09T08:58:59.908Z,84.00
2019-01-09T09:01:29.765Z,73.80
2019-01-09T09:03:59.832Z,80.20
2019-01-09T09:06:29.868Z,78.40
2019-01-09T09:09:01.744Z,79.90
2019-01-09T09:11:31.728Z,81.70
2019-01-09T09:14:01.676Z,85.80
2019-01-09T09:16:36.545Z,74.80
2019-01-09T09:19:04.576Z,83.80
2019-01-09T09:21:34.467Z,80.30
2019-01-09T09:24:04.905Z,82.60
2019-01-09T09:26:35.844Z,79.30
2019-01-09T09:29:06.496Z,86.10
2019-01-09T09:31:37.176Z,79.80
2019-01-09T09:34:07.752Z,84.00
2019-01-09T09:36:37.726Z,87.90
2019-01-09T09:39:10.954Z,78.00
2019-01-09T09:41:41.574Z,81.10
2019-01-09T09:44:11.729Z,88.30
2019-01-09T09:46:41.694Z,81.60
2019-01-09T09:49:11.753Z,76.80
2019-01-09T09:51:41.838Z,82.70
2019-01-09T09:54:11.992Z,80.00
2019-01-09T09:56:41.960Z,76.10
2019-01-09T09:59:12.020Z,74.60
2019-01-09T10:01:42.100Z,78.90
2019-01-09T10:04:11.936Z,79.50
2019-01-09T10:06:41.935Z,88.10
2019-01-09T10:09:12.592Z,77.60
2019-01-09T10:11:42.479Z,90.00
2019-01-09T10:14:12.328Z,91.50
2019-01-09T10:16:42.676Z,78.00
2019-01-09T10:19:12.786Z,83.30
2019-01-09T10:21:42.960Z,85.70
2019-01-09T10:24:12.803Z,78.30
2019-01-09T10:26:42.597Z,85.70
2019-01-09T10:29:12.488Z,88.90
2019-01-09T10:31:42.835Z,91.50
2019-01-09T10:34:12.831Z,77.40
2019-01-09T10:36:43.008Z,77.90
2019-01-09T10:39:12.954Z,87.00
2019-01-09T10:41:42.897Z,80.10
2019-01-09T10:44:18.738Z,90.20
2019-01-09T10:46:45.048Z,80.70
2019-01-09T10:49:15.163Z,91.10
2019-01-09T10:51:45.589Z,92.10
2019-01-09T10:54:15.525Z,81.90
2019-01-09T10:56:45.572Z,93.90
2019-01-09T10:59:16.201Z,92.10
2019-01-09T11:01:46.131Z,78.30
2019-01-09T11:04:15.980Z,90.30
2019-01-09T11:06:45.832Z,89.00
2019-01-09T11:09:15.713Z,95.30
2019-01-09T11:11:45.773Z,75.00
2019-01-09T11:14:15.854Z,94.70
2019-01-09T11:16:45.697Z,80.10
2019-01-09T11:19:15.576Z,85.30
2019-01-09T11:21:45.535Z,90.20
2019-01-09T11:24:15.513Z,90.90
2019-01-09T11:26:45.466Z,93.00
2019-01-09T11:29:15.765Z,80.90
2019-01-09T11:31:45.967Z,75.90
2019-01-09T11:34:15.884Z,78.10
2019-01-09T11:36:45.840Z,93.40
2019-01-09T11:39:15.812Z,78.60
2019-01-09T11:41:45.768Z,92.50
2019-01-09T11:44:15.940Z,86.80
2019-01-09T11:46:46.209Z,76.10
2019-01-09T11:49:16.291Z,75.70
2019-01-09T11:51:46.244Z,90.10
2019-01-09T11:54:16.011Z,73.00
2019-01-09T11:56:46.096Z,78.90
2019-01-09T11:59:16.049Z,80.90
2019-01-09T12:01:45.949Z,72.40
2019-01-09T12:04:15.821Z,82.00
2019-01-09T12:06:45.748Z,77.80
2019-01-09T12:09:15.652Z,73.80
2019-01-09T12:11:45.708Z,75.50
2019-01-09T12:14:15.772Z,78.30
2019-01-09T12:16:45.648Z,67.70
2019-01-09T12:19:15.617Z,64.50
2019-01-09T12:21:45.783Z,70.70
2019-01-09T12:24:15.818Z,77.40
2019-01-09T12:26:45.720Z,72.10
2019-01-09T12:29:15.584Z,74.80
2019-01-09T12:31:45.634Z,76.30
2019-01-09T12:34:15.500Z,77.90
2019-01-09T12:36:45.490Z,77.50
2019-01-09T12:39:15.433Z,74.70
2019-01-09T12:41:45.515Z,73.90
2019-01-09T12:44:15.360Z,77.70
2019-01-09T12:46:46.128Z,75.20
2019-01-09T12:49:16.332Z,81.20
2019-01-09T12:51:46.708Z,90.50
2019-01-09T12:54:17.067Z,86.50
2019-01-09T12:56:48.294Z,77.10
2019-01-09T12:59:21.804Z,92.40
2019-01-09T13:01:52.296Z,85.30
2019-01-09T13:04:22.739Z,78.90
2019-01-09T13:06:52.641Z,89.30
2019-01-09T13:09:22.683Z,88.80
2019-01-09T13:11:52.916Z,77.90
2019-01-09T13:14:23.800Z,73.20
2019-01-09T13:16:53.764Z,82.40
2019-01-09T13:19:24.464Z,79.20
2019-01-09T13:21:54.873Z,81.60
2019-01-09T13:24:25.405Z,74.40
2019-01-09T13:26:55.583Z,86.60
2019-01-09T13:29:25.656Z,73.70
2019-01-09T13:31:55.718Z,79.60
2019-01-09T13:34:25.689Z,87.60
2019-01-09T13:36:55.638Z,73.30
2019-01-09T13:39:30.651Z,69.10
2019-01-09T13:41:58.242Z,77.00
2019-01-09T13:44:28.213Z,75.90
2019-01-09T13:46:58.370Z,87.30
2019-01-09T13:49:28.348Z,74.70
2019-01-09T13:51:58.196Z,90.20
2019-01-09T13:54:28.280Z,72.70
2019-01-09T13:56:58.324Z,71.20
2019-01-09T13:59:28.413Z,72.60
2019-01-09T14:01:59.707Z,70.00
2019-01-09T14:04:29.776Z,69.80
2019-01-09T14:07:00.193Z,70.10
2019-01-09T14:09:30.220Z,74.10
2019-01-09T14:12:00.065Z,75.00
2019-01-09T14:14:30.064Z,82.70
2019-01-09T14:17:00.357Z,71.50
2019-01-09T14:19:32.106Z,87.20
2019-01-09T14:22:02.098Z,72.80
2019-01-09T14:24:32.068Z,72.20
2019-01-09T14:27:02.223Z,68.70
2019-01-09T14:29:32.316Z,69.70
2019-01-09T14:32:02.422Z,78.90
2019-01-09T14:34:32.328Z,70.10
2019-01-09T14:37:02.388Z,67.60
2019-01-09T14:39:32.246Z,77.80
2019-01-09T14:42:02.325Z,76.80
2019-01-09T14:44:32.397Z,65.80
2019-01-09T14:47:02.342Z,69.10
2019-01-09T14:49:32.228Z,69.50
2019-01-09T14:52:02.068Z,68.30
2019-01-09T14:54:31.973Z,77.80
2019-01-09T14:57:02.165Z,66.20
2019-01-09T14:59:32.228Z,64.80
2019-01-09T15:02:02.204Z,66.00
2019-01-09T15:04:32.212Z,67.50
2019-01-09T15:07:02.145Z,66.30
2019-01-09T15:09:32.084Z,68.10
2019-01-09T15:12:02.285Z,63.10
2019-01-09T15:14:32.345Z,63.40
2019-01-09T15:17:02.423Z,67.80
2019-01-09T15:19:32.462Z,66.10
2019-01-09T15:22:02.554Z,68.00
2019-01-09T15:24:33.550Z,67.60
2019-01-09T15:27:03.709Z,66.40
2019-01-09T15:29:33.777Z,66.30
2019-01-09T15:32:03.736Z,68.90
2019-01-09T15:34:34.824Z,67.20
2019-01-09T15:37:04.896Z,67.50
2019-01-09T15:39:34.846Z,67.10
2019-01-09T15:42:04.925Z,68.70
2019-01-09T15:44:34.990Z,71.20
2019-01-09T15:47:05.285Z,78.80
2019-01-09T15:49:35.330Z,70.00
2019-01-09T15:52:05.512Z,75.50
2019-01-09T15:54:35.561Z,71.80
2019-01-09T15:57:05.652Z,77.60
2019-01-09T15:59:35.493Z,61.90
2019-01-09T16:02:06.275Z,71.70
2019-01-09T16:04:36.236Z,72.60
2019-01-09T16:07:06.415Z,77.30
2019-01-09T16:09:36.629Z,68.80
2019-01-09T16:12:06.765Z,69.30
2019-01-09T16:14:36.592Z,82.50
2019-01-09T16:17:06.734Z,79.70
2019-01-09T16:19:36.819Z,78.40
2019-01-09T16:22:06.767Z,66.20
2019-01-09T16:24:36.733Z,74.10
2019-01-09T16:27:06.692Z,88.20
2019-01-09T16:29:36.462Z,73.90
2019-01-09T16:32:07.128Z,75.40
2019-01-09T16:34:36.904Z,71.80
2019-01-09T16:37:06.860Z,76.90
2019-01-09T16:39:36.940Z,79.40
2019-01-09T16:42:06.985Z,78.30
2019-01-09T16:44:36.764Z,73.80
2019-01-09T16:47:06.996Z,84.40
2019-01-09T16:49:37.212Z,74.80
2019-01-09T16:52:07.782Z,78.70
2019-01-09T16:54:38.068Z,76.70
2019-01-09T16:57:08.121Z,73.00
2019-01-09T16:59:38.742Z,73.60
2019-01-09T17:02:09.163Z,75.30
2019-01-09T17:04:39.146Z,70.10
2019-01-09T17:07:09.141Z,78.10
2019-01-09T17:09:39.196Z,80.40
2019-01-09T17:12:09.216Z,75.20
2019-01-09T17:14:39.782Z,83.00
2019-01-09T17:17:09.728Z,82.10
2019-01-09T17:19:39.700Z,80.10
2019-01-09T17:22:09.752Z,72.70
2019-01-09T17:24:39.729Z,84.50
2019-01-09T17:27:09.625Z,78.50
2019-01-09T17:29:39.344Z,80.80
2019-01-09T17:32:09.856Z,72.20
2019-01-09T17:34:39.695Z,86.40
2019-01-09T17:37:09.470Z,75.20
2019-01-09T17:39:39.617Z,73.50
2019-01-09T17:42:09.816Z,76.20
2019-01-09T17:44:39.662Z,74.10
2019-01-09T17:47:09.813Z,75.90
2019-01-09T17:49:40.008Z,74.90
2019-01-09T17:52:09.984Z,89.30
2019-01-09T17:54:40.049Z,68.80
2019-01-09T17:57:10.113Z,81.50
2019-01-09T17:59:40.578Z,88.50
2019-01-09T18:02:10.568Z,72.90
2019-01-09T18:04:40.898Z,88.40
2019-01-09T18:07:11.012Z,77.80
2019-01-09T18:09:41.048Z,72.40
2019-01-09T18:12:11.568Z,71.10
2019-01-09T18:14:41.604Z,70.70
2019-01-09T18:17:11.684Z,73.30
2019-01-09T18:19:41.867Z,70.90
2019-01-09T18:22:12.036Z,63.20
2019-01-09T18:24:41.885Z,73.40
2019-01-09T18:27:11.749Z,72.10
2019-01-09T18:29:41.779Z,80.40
2019-01-09T18:32:29.940Z,81.00
2019-01-09T18:35:41.079Z,75.10
2019-01-09T18:38:41.245Z,78.50
2019-01-09T18:41:42.554Z,72.00
2019-01-09T18:44:36.140Z,78.50
2019-01-09T18:47:56.038Z,77.40
2019-01-09T18:51:05.596Z,87.10
2019-01-09T18:53:58.308Z,76.90
2019-01-09T18:56:28.473Z,72.30
2019-01-09T18:58:58.433Z,68.90
2019-01-09T19:01:28.798Z,89.60
2019-01-09T19:03:58.593Z,90.00
2019-01-09T19:06:35.208Z,70.70
2019-01-09T19:09:00.388Z,70.90
2019-01-09T19:11:30.809Z,75.70
2019-01-09T19:14:00.712Z,69.80
2019-01-09T19:16:30.408Z,73.80
2019-01-09T19:19:00.467Z,76.00
2019-01-09T19:21:32.272Z,80.40
2019-01-09T19:24:02.851Z,67.70
2019-01-09T19:26:32.800Z,81.00
2019-01-09T19:29:02.889Z,80.30
2019-01-09T19:31:33.291Z,85.80
2019-01-09T19:34:03.329Z,74.60
2019-01-09T19:36:33.204Z,76.80
2019-01-09T19:39:03.286Z,78.90
2019-01-09T19:41:33.348Z,81.30
2019-01-09T19:44:03.277Z,71.50
2019-01-09T19:46:33.292Z,73.90
2019-01-09T19:49:05.697Z,70.20
2019-01-09T19:51:35.253Z,72.10
2019-01-09T19:54:05.701Z,73.50
2019-01-09T19:56:35.605Z,71.60
2019-01-09T19:59:05.637Z,75.00
2019-01-09T20:01:36.650Z,77.80
2019-01-09T20:04:06.896Z,72.50
2019-01-09T20:06:36.769Z,75.50
2019-01-09T20:09:09.847Z,84.20
2019-01-09T20:11:40.002Z,81.10
2019-01-09T20:14:10.054Z,81.20
2019-01-09T20:16:40.123Z,72.60
2019-01-09T20:19:10.188Z,76.00
2019-01-09T20:21:40.290Z,78.80
2019-01-09T20:24:10.210Z,69.60
2019-01-09T20:26:40.492Z,71.70
2019-01-09T20:29:10.862Z,69.60
2019-01-09T20:31:41.033Z,70.60
2019-01-09T20:34:11.230Z,83.30
2019-01-09T20:36:41.608Z,76.90
2019-01-09T20:39:12.713Z,69.70
2019-01-09T20:41:43.566Z,72.50
2019-01-09T20:44:13.606Z,72.10
2019-01-09T20:46:43.500Z,75.00
2019-01-09T20:49:13.407Z,84.70
2019-01-09T20:51:43.501Z,89.40
2019-01-09T20:54:13.567Z,83.10
2019-01-09T20:56:43.751Z,78.80
2019-01-09T20:59:13.839Z,76.70
2019-01-09T21:01:43.761Z,83.40
2019-01-09T21:04:14.012Z,77.20
2019-01-09T21:06:44.455Z,70.70
2019-01-09T21:09:14.536Z,81.30
2019-01-09T21:11:44.732Z,72.20
2019-01-09T21:14:14.811Z,76.20
2019-01-09T21:16:44.957Z,72.80
2019-01-09T21:19:14.842Z,73.70
2019-01-09T21:21:44.797Z,74.90
2019-01-09T21:24:14.872Z,74.70
2019-01-09T21:26:45.320Z,59.50
2019-01-09T21:29:15.101Z,72.30
2019-01-09T21:31:45.200Z,70.20
2019-01-09T21:34:15.137Z,73.10
2019-01-09T21:36:44.952Z,77.60
2019-01-09T21:39:14.902Z,72.70
2019-01-09T21:41:53.100Z,72.90
2019-01-09T21:44:16.418Z,83.40
2019-01-09T21:46:46.699Z,63.70
2019-01-09T21:49:16.614Z,79.90
2019-01-09T21:51:46.703Z,77.40
2019-01-09T21:54:17.667Z,79.00
2019-01-09T21:56:47.643Z,78.80
2019-01-09T21:59:18.264Z,79.30
2019-01-09T22:01:48.396Z,83.60
2019-01-09T22:06:47.509Z,62.10
2019-01-09T22:09:17.452Z,82.60
2019-01-09T22:11:49.052Z,76.20
2019-01-09T22:14:19.136Z,68.70
2019-01-09T22:16:49.606Z,71.00
2019-01-09T22:19:21.364Z,66.70
2019-01-09T22:21:51.368Z,75.40
2019-01-09T22:24:21.557Z,68.70
2019-01-09T22:26:51.425Z,70.20
2019-01-09T22:29:21.381Z,69.10
2019-01-09T22:31:51.265Z,65.10
2019-01-09T22:34:21.319Z,66.30
2019-01-09T22:36:51.396Z,67.00
2019-01-09T22:39:21.339Z,64.80
2019-01-09T22:41:51.224Z,67.80
2019-01-09T22:44:21.072Z,66.70
2019-01-09T22:46:51.163Z,67.20
2019-01-09T22:49:21.023Z,67.00
2019-01-09T22:51:50.977Z,67.80
2019-01-09T22:54:20.888Z,65.30
2019-01-09T22:56:50.847Z,67.60
2019-01-09T22:59:20.937Z,63.80
2019-01-09T23:01:50.881Z,67.80
2019-01-09T23:04:21.258Z,65.20
2019-01-09T23:06:51.111Z,64.10
2019-01-09T23:09:21.120Z,63.90
2019-01-09T23:11:51.044Z,63.90
2019-01-09T23:14:21.029Z,63.90
2019-01-09T23:16:51.087Z,63.30
2019-01-09T23:19:21.325Z,62.90
2019-01-09T23:21:51.313Z,62.50
2019-01-09T23:24:21.813Z,62.30
2019-01-09T23:26:52.173Z,64.40
2019-01-09T23:29:22.149Z,63.80
2019-01-09T23:31:52.276Z,63.00
2019-01-09T23:34:22.289Z,62.60
2019-01-09T23:36:52.300Z,62.70
2019-01-09T23:39:22.626Z,62.30
2019-01-09T23:41:53.617Z,62.30
2019-01-09T23:44:23.568Z,62.30
2019-01-09T23:46:53.425Z,62.70
2019-01-09T23:49:23.309Z,63.10
2019-01-09T23:51:53.272Z,62.80
2019-01-09T23:54:23.228Z,62.40
2019-01-09T23:56:53.349Z,63.10
2019-01-09T23:59:23.369Z,62.90
